createdAt,value
2023-05-04T00:00:20.067Z,3.92
2023-05-04T00:03:22.267Z,3.92
2023-05-04T00:06:24.287Z,3.67
2023-05-04T00:09:26.276Z,4.00
2023-05-04T00:12:28.616Z,3.75
2023-05-04T00:15:30.540Z,3.83
2023-05-04T00:18:32.521Z,3.90
2023-05-04T00:21:34.506Z,5.97
2023-05-04T00:24:36.598Z,3.88
2023-05-04T00:27:38.273Z,3.85
2023-05-04T00:30:40.757Z,4.10
2023-05-04T00:33:42.629Z,3.67
2023-05-04T00:36:44.574Z,4.28
2023-05-04T00:39:48.490Z,4.03
2023-05-04T00:42:50.210Z,3.88
2023-05-04T00:45:52.410Z,4.18
2023-05-04T00:48:54.210Z,3.80
2023-05-04T00:51:57.285Z,4.10
2023-05-04T00:55:01.425Z,4.57
2023-05-04T00:58:03.569Z,4.13
2023-05-04T01:01:05.593Z,4.40
2023-05-04T01:04:08.181Z,4.35
2023-05-04T01:07:16.592Z,4.57
2023-05-04T01:10:26.022Z,4.40
2023-05-04T01:13:28.375Z,4.15
2023-05-04T01:16:30.179Z,4.35
2023-05-04T01:19:31.912Z,4.53
2023-05-04T01:22:33.771Z,4.18
2023-05-04T01:26:02.801Z,4.03
2023-05-04T01:29:23.619Z,3.90
2023-05-04T01:32:28.412Z,4.80
2023-05-04T01:35:32.712Z,4.75
2023-05-04T01:38:34.640Z,5.20
2023-05-04T01:41:37.069Z,4.82
2023-05-04T01:44:38.996Z,4.88
2023-05-04T01:47:41.738Z,4.57
2023-05-04T01:50:43.725Z,4.57
2023-05-04T01:53:45.853Z,4.35
2023-05-04T01:56:47.904Z,4.70
2023-05-04T01:59:49.832Z,4.55
2023-05-04T02:02:51.710Z,4.50
2023-05-04T02:05:54.700Z,4.53
2023-05-04T02:08:56.895Z,4.63
2023-05-04T02:11:59.083Z,4.78
2023-05-04T02:15:01.062Z,4.63
2023-05-04T02:18:03.148Z,3.88
2023-05-04T02:21:05.324Z,4.15
2023-05-04T02:24:07.524Z,4.28
2023-05-04T02:27:09.285Z,4.43
2023-05-04T02:30:11.957Z,4.63
2023-05-04T02:33:16.476Z,4.50
2023-05-04T02:36:18.374Z,4.20
2023-05-04T02:39:20.252Z,4.13
2023-05-04T02:42:22.211Z,4.90
2023-05-04T02:45:24.230Z,4.70
2023-05-04T02:48:26.200Z,5.57
2023-05-04T02:51:28.086Z,5.03
2023-05-04T02:54:30.503Z,4.70
2023-05-04T02:57:32.636Z,4.70
2023-05-04T03:00:34.979Z,5.25
2023-05-04T03:03:36.835Z,5.05
2023-05-04T03:06:38.764Z,4.63
2023-05-04T03:09:41.204Z,4.80
2023-05-04T03:12:43.033Z,4.45
2023-05-04T03:15:45.333Z,5.13
2023-05-04T03:18:47.413Z,4.60
2023-05-04T03:21:49.868Z,4.30
2023-05-04T03:24:52.121Z,4.80
2023-05-04T03:27:54.385Z,3.92
2023-05-04T03:30:56.422Z,4.28
2023-05-04T03:33:58.436Z,4.57
2023-05-04T03:37:00.450Z,3.90
2023-05-04T03:40:02.913Z,4.30
2023-05-04T03:43:04.996Z,4.43
2023-05-04T03:46:07.215Z,3.80
2023-05-04T03:49:09.077Z,4.20
2023-05-04T03:52:10.797Z,4.50
2023-05-04T03:55:14.016Z,4.80
2023-05-04T03:58:15.992Z,4.30
2023-05-04T04:01:17.960Z,4.68
2023-05-04T04:04:19.875Z,4.50
2023-05-04T04:07:21.849Z,4.38
2023-05-04T04:10:24.071Z,5.00
2023-05-04T04:13:25.845Z,5.03
2023-05-04T04:16:27.588Z,5.05
2023-05-04T04:19:29.973Z,5.05
2023-05-04T04:22:31.794Z,4.85
2023-05-04T04:25:33.861Z,5.38
2023-05-04T04:28:35.904Z,4.93
2023-05-04T04:31:37.981Z,4.57
2023-05-04T04:34:40.183Z,4.63
2023-05-04T04:37:42.293Z,4.68
2023-05-04T04:40:44.345Z,5.15
2023-05-04T04:43:46.409Z,5.15
2023-05-04T04:46:48.638Z,5.63
2023-05-04T04:49:50.847Z,5.00
2023-05-04T04:52:52.865Z,4.82
2023-05-04T04:55:54.962Z,5.00
2023-05-04T04:58:56.859Z,4.82
2023-05-04T05:01:59.367Z,5.13
2023-05-04T05:05:01.203Z,4.43
2023-05-04T05:08:03.290Z,5.10
2023-05-04T05:11:06.075Z,4.65
2023-05-04T05:14:08.137Z,5.43
2023-05-04T05:17:10.423Z,5.28
2023-05-04T05:20:12.468Z,5.15
2023-05-04T05:23:14.761Z,5.10
2023-05-04T05:26:16.613Z,5.28
2023-05-04T05:29:18.437Z,5.07
2023-05-04T05:32:20.480Z,5.05
2023-05-04T05:35:22.202Z,5.68
2023-05-04T05:38:23.878Z,5.30
2023-05-04T05:41:25.958Z,5.53
2023-05-04T05:44:27.858Z,5.20
2023-05-04T05:47:29.857Z,5.22
2023-05-04T05:50:31.818Z,5.32
2023-05-04T05:53:33.663Z,4.78
2023-05-04T05:56:35.474Z,4.80
2023-05-04T05:59:37.480Z,5.25
2023-05-04T06:02:39.594Z,5.57
2023-05-04T06:05:42.423Z,5.68
2023-05-04T06:08:44.493Z,5.43
2023-05-04T06:11:46.813Z,5.22
2023-05-04T06:14:48.680Z,5.30
2023-05-04T06:17:51.901Z,5.80
2023-05-04T06:21:04.788Z,5.38
2023-05-04T06:24:06.993Z,5.20
2023-05-04T06:27:08.977Z,5.03
2023-05-04T06:30:11.571Z,4.97
2023-05-04T06:33:13.851Z,4.20
2023-05-04T06:36:15.990Z,5.03
2023-05-04T06:39:18.111Z,4.85
2023-05-04T06:42:20.923Z,4.68
2023-05-04T06:45:24.482Z,4.38
2023-05-04T06:48:26.624Z,4.60
2023-05-04T06:51:28.919Z,4.10
2023-05-04T06:54:31.810Z,4.13
2023-05-04T06:57:34.126Z,4.28
2023-05-04T07:00:36.268Z,3.80
2023-05-04T07:03:39.140Z,4.97
2023-05-04T07:06:41.290Z,4.13
2023-05-04T07:09:44.148Z,4.25
2023-05-04T07:12:46.067Z,3.80
2023-05-04T07:15:47.800Z,4.00
2023-05-04T07:18:49.792Z,4.07
2023-05-04T07:21:51.552Z,3.90
2023-05-04T07:24:53.450Z,3.78
2023-05-04T07:27:55.534Z,4.47
2023-05-04T07:30:58.317Z,4.32
2023-05-04T07:33:59.985Z,3.63
2023-05-04T07:37:05.271Z,3.70
2023-05-04T07:40:07.963Z,3.40
2023-05-04T07:43:09.975Z,3.88
2023-05-04T07:46:12.651Z,3.20
2023-05-04T07:49:14.592Z,3.60
2023-05-04T07:52:16.423Z,3.63
2023-05-04T07:55:19.314Z,3.53
2023-05-04T07:58:21.298Z,3.55
2023-05-04T08:01:23.140Z,3.72
2023-05-04T08:04:25.003Z,3.80
2023-05-04T08:07:26.917Z,3.50
2023-05-04T08:10:29.418Z,3.83
2023-05-04T08:13:31.505Z,4.28
2023-05-04T08:16:33.659Z,3.83
2023-05-04T08:19:35.564Z,4.15
2023-05-04T08:22:37.469Z,4.57
2023-05-04T08:25:39.380Z,4.00
2023-05-04T08:28:41.633Z,4.15
2023-05-04T08:31:43.602Z,3.90
2023-05-04T08:34:45.561Z,4.35
2023-05-04T08:37:47.939Z,4.38
2023-05-04T08:40:50.646Z,4.70
2023-05-04T08:43:52.889Z,3.88
2023-05-04T08:46:57.054Z,4.07
2023-05-04T08:49:58.983Z,3.92
2023-05-04T08:53:04.469Z,3.88
2023-05-04T08:56:14.423Z,4.05
2023-05-04T08:59:21.903Z,3.88
2023-05-04T09:02:25.122Z,4.13
2023-05-04T09:05:27.569Z,3.85
2023-05-04T09:08:29.486Z,4.07
2023-05-04T09:11:32.447Z,3.97
2023-05-04T09:14:36.152Z,3.95
2023-05-04T09:17:47.512Z,3.55
2023-05-04T09:20:58.737Z,3.63
2023-05-04T09:24:01.126Z,3.65
2023-05-04T09:27:18.974Z,3.53
2023-05-04T09:30:22.004Z,3.78
2023-05-04T09:33:30.150Z,4.28
2023-05-04T09:36:32.131Z,4.05
2023-05-04T09:39:33.967Z,4.25
2023-05-04T09:42:36.081Z,3.88
2023-05-04T09:45:48.494Z,3.72
2023-05-04T09:48:57.281Z,3.97
2023-05-04T09:52:02.662Z,4.25
2023-05-04T09:55:05.899Z,4.50
2023-05-04T09:58:09.240Z,4.00
2023-05-04T10:01:11.849Z,4.13
2023-05-04T10:04:14.149Z,3.75
2023-05-04T10:07:16.756Z,4.00
2023-05-04T10:10:18.788Z,3.25
2023-05-04T10:13:20.952Z,3.95
2023-05-04T10:16:26.217Z,4.07
2023-05-04T10:20:19.848Z,3.92
2023-05-04T10:23:49.164Z,3.50
2023-05-04T10:27:12.324Z,4.43
2023-05-04T10:30:18.677Z,3.97
2023-05-04T10:33:20.606Z,4.07
2023-05-04T10:36:22.492Z,3.60
2023-05-04T10:39:26.617Z,3.50
2023-05-04T10:42:28.744Z,4.03
2023-05-04T10:45:41.933Z,3.90
2023-05-04T10:48:43.755Z,3.97
2023-05-04T10:51:49.550Z,3.53
2023-05-04T10:54:59.872Z,3.80
2023-05-04T10:58:01.862Z,4.10
2023-05-04T11:01:13.012Z,4.18
2023-05-04T11:04:22.397Z,3.78
2023-05-04T11:07:39.724Z,3.97
2023-05-04T11:10:41.478Z,3.63
2023-05-04T11:13:46.818Z,3.53
2023-05-04T11:16:48.807Z,4.53
2023-05-04T11:19:52.916Z,3.63
2023-05-04T11:22:54.780Z,3.38
2023-05-04T11:25:56.605Z,3.45
2023-05-04T11:28:58.713Z,3.58
2023-05-04T11:32:00.508Z,3.63
2023-05-04T11:35:04.607Z,3.47
2023-05-04T11:38:07.671Z,3.40
2023-05-04T11:41:10.291Z,3.47
2023-05-04T11:44:12.563Z,3.42
2023-05-04T11:47:14.827Z,3.50
2023-05-04T11:50:20.726Z,3.75
2023-05-04T11:53:23.309Z,3.80
2023-05-04T11:56:25.022Z,2.90
2023-05-04T11:59:26.995Z,3.40
2023-05-04T12:02:28.973Z,3.20
2023-05-04T12:05:32.114Z,3.38
2023-05-04T12:08:42.550Z,3.35
2023-05-04T12:11:55.192Z,3.95
2023-05-04T12:14:57.509Z,4.00
2023-05-04T12:18:02.737Z,3.60
2023-05-04T12:21:10.350Z,3.38
2023-05-04T12:24:12.388Z,3.28
2023-05-04T12:27:15.170Z,3.05
2023-05-04T12:30:17.566Z,3.50
2023-05-04T12:33:19.634Z,3.25
2023-05-04T12:36:22.012Z,2.80
2023-05-04T12:39:24.235Z,3.22
2023-05-04T12:42:26.215Z,2.97
2023-05-04T12:45:28.349Z,2.80
2023-05-04T12:48:33.059Z,2.85
2023-05-04T12:51:35.697Z,2.70
2023-05-04T12:54:37.820Z,2.47
2023-05-04T12:57:45.066Z,2.58
2023-05-04T13:00:47.350Z,2.72
2023-05-04T13:03:49.511Z,2.75
2023-05-04T13:06:52.010Z,3.03
2023-05-04T13:09:54.245Z,2.75
2023-05-04T13:12:56.691Z,3.13
2023-05-04T13:15:58.765Z,2.75
2023-05-04T13:19:00.832Z,2.70
2023-05-04T13:22:02.915Z,2.60
2023-05-04T13:25:05.432Z,2.72
2023-05-04T13:28:07.531Z,2.72
2023-05-04T13:31:09.951Z,2.80
2023-05-04T13:34:11.930Z,2.60
2023-05-04T13:37:18.328Z,2.75
2023-05-04T13:40:20.709Z,2.72
2023-05-04T13:43:22.714Z,2.78
2023-05-04T13:46:27.422Z,3.03
2023-05-04T13:49:30.700Z,2.85
2023-05-04T13:52:33.158Z,2.83
2023-05-04T13:55:35.108Z,3.10
2023-05-04T13:58:37.386Z,3.20
2023-05-04T14:01:39.476Z,3.00
2023-05-04T14:04:44.452Z,2.55
2023-05-04T14:07:46.446Z,2.70
2023-05-04T14:10:48.483Z,3.30
2023-05-04T14:13:51.555Z,2.63
2023-05-04T14:16:53.639Z,2.58
2023-05-04T14:19:56.235Z,2.50
2023-05-04T14:22:58.413Z,2.58
2023-05-04T14:26:01.034Z,3.10
2023-05-04T14:29:03.700Z,2.67
2023-05-04T14:32:05.986Z,2.90
2023-05-04T14:35:09.941Z,2.47
2023-05-04T14:38:13.265Z,2.80
2023-05-04T14:41:15.421Z,2.63
2023-05-04T14:44:17.891Z,3.10
2023-05-04T14:47:20.301Z,2.60
2023-05-04T14:50:22.751Z,3.30
2023-05-04T14:53:25.017Z,2.70
2023-05-04T14:56:28.173Z,2.72
2023-05-04T14:59:30.469Z,3.10
2023-05-04T15:02:32.531Z,2.78
2023-05-04T15:05:34.809Z,3.30
2023-05-04T15:08:36.870Z,2.80
2023-05-04T15:11:39.360Z,3.03
2023-05-04T15:14:41.758Z,2.70
2023-05-04T15:17:43.894Z,2.90
2023-05-04T15:20:45.916Z,3.55
2023-05-04T15:23:48.048Z,3.03
2023-05-04T15:26:50.069Z,3.15
2023-05-04T15:29:52.400Z,3.08
2023-05-04T15:32:54.545Z,3.65
2023-05-04T15:35:56.609Z,3.40
2023-05-04T15:38:58.432Z,3.80
2023-05-04T15:42:00.533Z,3.70
2023-05-04T15:45:02.463Z,3.83
2023-05-04T15:48:04.744Z,3.90
2023-05-04T15:51:12.872Z,3.65
2023-05-04T15:54:15.359Z,3.72
2023-05-04T15:57:17.522Z,3.80
2023-05-04T16:00:19.894Z,3.60
2023-05-04T16:03:23.791Z,4.45
2023-05-04T16:06:26.621Z,3.92
2023-05-04T16:09:30.162Z,4.38
2023-05-04T16:12:32.577Z,4.10
2023-05-04T16:15:34.690Z,4.07
2023-05-04T16:18:36.997Z,3.75
2023-05-04T16:21:39.136Z,4.22
2023-05-04T16:24:41.127Z,4.25
2023-05-04T16:27:43.336Z,3.97
2023-05-04T16:30:45.664Z,3.78
2023-05-04T16:33:48.175Z,3.63
2023-05-04T16:36:50.205Z,4.10
2023-05-04T16:39:51.959Z,3.90
2023-05-04T16:42:53.993Z,4.03
2023-05-04T16:45:55.867Z,3.70
2023-05-04T16:48:57.789Z,4.07
2023-05-04T16:51:59.762Z,4.63
2023-05-04T16:55:02.293Z,4.25
2023-05-04T16:58:04.180Z,3.92
2023-05-04T17:01:06.339Z,3.80
2023-05-04T17:04:08.984Z,4.07
2023-05-04T17:07:11.110Z,3.95
2023-05-04T17:10:12.978Z,4.50
2023-05-04T17:13:15.087Z,4.15
2023-05-04T17:16:18.952Z,3.85
2023-05-04T17:19:20.858Z,3.70
2023-05-04T17:22:23.809Z,3.75
2023-05-04T17:25:27.130Z,4.15
2023-05-04T17:28:30.210Z,4.07
2023-05-04T17:31:32.122Z,3.63
2023-05-04T17:34:34.958Z,3.78
2023-05-04T17:37:36.777Z,3.33
2023-05-04T17:40:38.511Z,3.92
2023-05-04T17:43:40.438Z,3.75
2023-05-04T17:46:42.623Z,3.95
2023-05-04T17:49:44.716Z,4.32
2023-05-04T17:52:51.697Z,4.00
2023-05-04T17:55:53.621Z,4.15
2023-05-04T17:58:55.877Z,4.28
2023-05-04T18:01:57.771Z,4.30
2023-05-04T18:04:59.741Z,4.07
2023-05-04T18:08:02.031Z,3.95
2023-05-04T18:11:03.876Z,3.85
2023-05-04T18:14:05.666Z,4.85
2023-05-04T18:17:08.046Z,4.13
2023-05-04T18:20:12.734Z,4.25
2023-05-04T18:23:14.416Z,3.80
2023-05-04T18:26:22.801Z,3.47
2023-05-04T18:29:24.744Z,3.60
2023-05-04T18:32:26.665Z,3.83
2023-05-04T18:35:28.864Z,3.78
2023-05-04T18:38:30.588Z,3.70
2023-05-04T18:41:32.290Z,3.85
2023-05-04T18:44:56.281Z,3.65
2023-05-04T18:47:58.226Z,3.38
2023-05-04T18:51:00.715Z,3.70
2023-05-04T18:54:02.467Z,4.03
2023-05-04T18:57:04.305Z,4.30
2023-05-04T19:00:07.355Z,3.58
2023-05-04T19:03:09.426Z,3.35
2023-05-04T19:06:12.105Z,3.47
2023-05-04T19:09:14.705Z,3.60
2023-05-04T19:12:16.484Z,3.28
2023-05-04T19:15:18.639Z,3.20
2023-05-04T19:18:20.960Z,3.22
2023-05-04T19:21:22.806Z,3.40
2023-05-04T19:24:24.733Z,3.22
2023-05-04T19:27:26.421Z,3.03
2023-05-04T19:30:28.128Z,2.60
2023-05-04T19:33:44.541Z,3.20
2023-05-04T19:36:49.959Z,3.35
2023-05-04T19:39:51.749Z,2.95
2023-05-04T19:42:53.857Z,3.15
2023-05-04T19:45:57.393Z,3.15
2023-05-04T19:48:59.733Z,3.17
2023-05-04T19:52:01.636Z,3.28
2023-05-04T19:55:03.482Z,2.97
2023-05-04T19:58:06.009Z,2.67
2023-05-04T20:01:07.992Z,2.78
2023-05-04T20:04:09.895Z,2.53
2023-05-04T20:07:11.787Z,2.90
2023-05-04T20:10:13.575Z,3.33
2023-05-04T20:13:15.299Z,3.17
2023-05-04T20:16:17.628Z,2.50
2023-05-04T20:19:19.420Z,3.45
2023-05-04T20:22:21.093Z,2.90
2023-05-04T20:25:23.034Z,2.97
2023-05-04T20:28:24.586Z,2.63
2023-05-04T20:31:26.977Z,3.00
2023-05-04T20:34:29.268Z,3.13
2023-05-04T20:37:31.484Z,3.10
2023-05-04T20:40:33.398Z,3.30
2023-05-04T20:43:36.214Z,3.30
2023-05-04T20:46:38.349Z,2.60
2023-05-04T20:49:40.145Z,3.35
2023-05-04T20:52:41.950Z,3.33
2023-05-04T20:55:44.024Z,3.17
2023-05-04T20:58:45.843Z,3.13
2023-05-04T21:01:47.919Z,2.88
2023-05-04T21:04:49.837Z,3.33
2023-05-04T21:07:54.572Z,3.47
2023-05-04T21:10:56.936Z,3.78
2023-05-04T21:13:58.830Z,2.88
2023-05-04T21:17:00.948Z,3.38
2023-05-04T21:20:03.082Z,3.67
2023-05-04T21:23:04.866Z,3.40
2023-05-04T21:26:06.561Z,3.58
2023-05-04T21:29:17.531Z,3.33
2023-05-04T21:32:19.151Z,2.72
2023-05-04T21:35:22.013Z,3.58
2023-05-04T21:38:23.985Z,3.20
2023-05-04T21:41:25.605Z,3.30
2023-05-04T21:44:27.363Z,3.20
2023-05-04T21:47:29.785Z,3.08
2023-05-04T21:50:31.517Z,3.53
2023-05-04T21:53:33.719Z,3.55
2023-05-04T21:56:35.530Z,3.33
2023-05-04T21:59:37.366Z,3.13
2023-05-04T22:02:39.353Z,3.10
2023-05-04T22:05:41.183Z,3.30
2023-05-04T22:08:43.088Z,3.60
2023-05-04T22:11:46.512Z,3.03
2023-05-04T22:14:48.226Z,3.30
2023-05-04T22:17:50.074Z,3.58
2023-05-04T22:20:51.927Z,3.50
2023-05-04T22:23:53.848Z,3.50
2023-05-04T22:26:55.661Z,3.13
2023-05-04T22:29:57.463Z,3.70
2023-05-04T22:32:59.603Z,3.70
2023-05-04T22:36:01.475Z,3.67
2023-05-04T22:39:03.419Z,3.80
2023-05-04T22:42:05.270Z,3.92
2023-05-04T22:45:07.560Z,3.95
2023-05-04T22:48:09.447Z,3.40
2023-05-04T22:51:11.344Z,3.75
2023-05-04T22:54:13.465Z,3.90
2023-05-04T22:57:15.795Z,3.90
2023-05-04T23:00:18.536Z,4.05
2023-05-04T23:03:20.493Z,4.20
2023-05-04T23:06:22.633Z,4.00
2023-05-04T23:09:24.337Z,3.70
2023-05-04T23:12:27.493Z,3.63
2023-05-04T23:15:29.385Z,4.18
2023-05-04T23:18:33.104Z,3.92
2023-05-04T23:21:35.052Z,4.13
2023-05-04T23:24:37.159Z,4.32
2023-05-04T23:27:39.748Z,4.20
2023-05-04T23:30:41.483Z,4.60
2023-05-04T23:33:43.550Z,4.15
2023-05-04T23:36:46.469Z,4.75
2023-05-04T23:39:49.625Z,4.88
2023-05-04T23:42:51.767Z,5.20
2023-05-04T23:46:04.968Z,4.38
2023-05-04T23:49:06.730Z,4.55
2023-05-04T23:52:08.595Z,4.20
2023-05-04T23:55:10.628Z,4.78
2023-05-04T23:58:12.510Z,5.30
